sensor_id;sensor_type;location;lat;lon;timestamp;P1;durP1;ratioP1;P2;durP2;ratioP2
50012;SDS011;35901;48.694;9.476;2022-09-09T00:00:38;4.70;;;4.27;;
50012;SDS011;35901;48.694;9.476;2022-09-09T00:03:18;4.63;;;4.03;;
50012;SDS011;35901;48.694;9.476;2022-09-09T00:06:01;4.73;;;4.07;;
50012;SDS011;35901;48.694;9.476;2022-09-09T00:11:24;5.13;;;4.57;;
50012;SDS011;35901;48.694;9.476;2022-09-09T00:14:11;6.60;;;4.40;;
50012;SDS011;35901;48.694;9.476;2022-09-09T00:16:50;4.63;;;3.70;;
50012;SDS011;35901;48.694;9.476;2022-09-09T00:19:28;6.47;;;4.57;;
50012;SDS011;35901;48.694;9.476;2022-09-09T00:22:22;4.93;;;4.10;;
50012;SDS011;35901;48.694;9.476;2022-09-09T00:24:55;5.03;;;4.60;;
50012;SDS011;35901;48.694;9.476;2022-09-09T00:27:48;6.20;;;3.97;;
50012;SDS011;35901;48.694;9.476;2022-09-09T00:30:17;8.13;;;4.57;;
50012;SDS011;35901;48.694;9.476;2022-09-09T00:32:46;8.60;;;4.90;;
50012;SDS011;35901;48.694;9.476;2022-09-09T00:35:15;4.67;;;3.97;;
50012;SDS011;35901;48.694;9.476;2022-09-09T00:37:47;6.53;;;4.97;;
50012;SDS011;35901;48.694;9.476;2022-09-09T00:43:07;4.57;;;4.17;;
50012;SDS011;35901;48.694;9.476;2022-09-09T00:52:08;5.80;;;4.67;;
50012;SDS011;35901;48.694;9.476;2022-09-09T00:54:54;4.87;;;4.40;;
50012;SDS011;35901;48.694;9.476;2022-09-09T00:57:34;6.37;;;4.70;;
50012;SDS011;35901;48.694;9.476;2022-09-09T01:00:18;6.40;;;4.77;;
50012;SDS011;35901;48.694;9.476;2022-09-09T01:05:51;5.43;;;4.70;;
50012;SDS011;35901;48.694;9.476;2022-09-09T01:08:56;4.60;;;4.10;;
50012;SDS011;35901;48.694;9.476;2022-09-09T01:11:49;4.20;;;3.80;;
50012;SDS011;35901;48.694;9.476;2022-09-09T01:17:05;6.47;;;3.50;;
50012;SDS011;35901;48.694;9.476;2022-09-09T01:20:20;3.93;;;3.30;;
50012;SDS011;35901;48.694;9.476;2022-09-09T01:26:02;5.07;;;4.00;;
50012;SDS011;35901;48.694;9.476;2022-09-09T01:28:49;4.57;;;3.90;;
50012;SDS011;35901;48.694;9.476;2022-09-09T01:31:20;5.23;;;3.70;;
50012;SDS011;35901;48.694;9.476;2022-09-09T01:33:51;5.87;;;3.67;;
50012;SDS011;35901;48.694;9.476;2022-09-09T01:36:20;4.60;;;3.50;;
50012;SDS011;35901;48.694;9.476;2022-09-09T01:38:51;4.47;;;3.80;;
50012;SDS011;35901;48.694;9.476;2022-09-09T01:41:20;4.90;;;4.03;;
50012;SDS011;35901;48.694;9.476;2022-09-09T01:44:01;5.93;;;4.73;;
50012;SDS011;35901;48.694;9.476;2022-09-09T01:46:30;5.00;;;4.37;;
50012;SDS011;35901;48.694;9.476;2022-09-09T01:48:56;5.27;;;4.50;;
50012;SDS011;35901;48.694;9.476;2022-09-09T01:51:26;5.23;;;4.70;;
50012;SDS011;35901;48.694;9.476;2022-09-09T01:53:56;6.80;;;4.83;;
50012;SDS011;35901;48.694;9.476;2022-09-09T02:05:14;9.67;;;4.90;;
50012;SDS011;35901;48.694;9.476;2022-09-09T02:07:46;6.17;;;3.93;;
50012;SDS011;35901;48.694;9.476;2022-09-09T02:10:45;6.70;;;4.67;;
50012;SDS011;35901;48.694;9.476;2022-09-09T02:13:21;6.13;;;5.10;;
50012;SDS011;35901;48.694;9.476;2022-09-09T02:18:48;7.73;;;5.53;;
50012;SDS011;35901;48.694;9.476;2022-09-09T02:21:30;9.33;;;6.37;;
50012;SDS011;35901;48.694;9.476;2022-09-09T02:24:00;6.83;;;5.90;;
50012;SDS011;35901;48.694;9.476;2022-09-09T02:26:32;9.17;;;6.10;;
50012;SDS011;35901;48.694;9.476;2022-09-09T02:29:05;7.57;;;5.47;;
50012;SDS011;35901;48.694;9.476;2022-09-09T02:31:41;8.13;;;5.27;;
50012;SDS011;35901;48.694;9.476;2022-09-09T02:34:14;5.70;;;5.20;;
50012;SDS011;35901;48.694;9.476;2022-09-09T02:36:43;7.43;;;6.00;;
50012;SDS011;35901;48.694;9.476;2022-09-09T02:39:13;8.43;;;6.33;;
50012;SDS011;35901;48.694;9.476;2022-09-09T02:41:40;7.63;;;6.33;;
50012;SDS011;35901;48.694;9.476;2022-09-09T02:44:15;7.07;;;5.27;;
50012;SDS011;35901;48.694;9.476;2022-09-09T02:52:05;7.47;;;5.83;;
50012;SDS011;35901;48.694;9.476;2022-09-09T02:54:41;8.10;;;5.53;;
50012;SDS011;35901;48.694;9.476;2022-09-09T02:57:11;6.70;;;5.10;;
50012;SDS011;35901;48.694;9.476;2022-09-09T02:59:40;7.33;;;5.47;;
50012;SDS011;35901;48.694;9.476;2022-09-09T03:02:08;7.37;;;5.63;;
50012;SDS011;35901;48.694;9.476;2022-09-09T03:04:35;8.13;;;6.03;;
50012;SDS011;35901;48.694;9.476;2022-09-09T03:07:01;8.90;;;5.73;;
50012;SDS011;35901;48.694;9.476;2022-09-09T03:09:28;9.23;;;6.37;;
50012;SDS011;35901;48.694;9.476;2022-09-09T03:11:55;9.57;;;5.90;;
50012;SDS011;35901;48.694;9.476;2022-09-09T03:14:22;9.03;;;6.30;;
50012;SDS011;35901;48.694;9.476;2022-09-09T03:16:50;9.77;;;6.03;;
50012;SDS011;35901;48.694;9.476;2022-09-09T03:19:17;9.10;;;6.67;;
50012;SDS011;35901;48.694;9.476;2022-09-09T03:21:44;9.37;;;6.23;;
50012;SDS011;35901;48.694;9.476;2022-09-09T03:24:11;6.57;;;5.87;;
50012;SDS011;35901;48.694;9.476;2022-09-09T03:26:37;8.03;;;5.60;;
50012;SDS011;35901;48.694;9.476;2022-09-09T03:29:05;8.73;;;5.40;;
50012;SDS011;35901;48.694;9.476;2022-09-09T03:31:34;7.77;;;5.33;;
50012;SDS011;35901;48.694;9.476;2022-09-09T03:34:01;6.93;;;5.37;;
50012;SDS011;35901;48.694;9.476;2022-09-09T03:36:30;5.10;;;4.70;;
50012;SDS011;35901;48.694;9.476;2022-09-09T03:38:56;5.17;;;4.70;;
50012;SDS011;35901;48.694;9.476;2022-09-09T03:41:25;5.93;;;5.13;;
50012;SDS011;35901;48.694;9.476;2022-09-09T03:43:51;6.27;;;4.93;;
50012;SDS011;35901;48.694;9.476;2022-09-09T03:46:18;7.70;;;5.37;;
50012;SDS011;35901;48.694;9.476;2022-09-09T03:48:44;7.33;;;4.90;;
50012;SDS011;35901;48.694;9.476;2022-09-09T03:51:10;5.97;;;5.20;;
50012;SDS011;35901;48.694;9.476;2022-09-09T03:53:36;7.50;;;4.83;;
50012;SDS011;35901;48.694;9.476;2022-09-09T03:56:03;7.10;;;4.67;;
50012;SDS011;35901;48.694;9.476;2022-09-09T03:58:32;5.67;;;4.50;;
50012;SDS011;35901;48.694;9.476;2022-09-09T04:01:07;9.20;;;5.47;;
50012;SDS011;35901;48.694;9.476;2022-09-09T04:03:35;6.10;;;5.50;;
50012;SDS011;35901;48.694;9.476;2022-09-09T04:06:02;7.47;;;5.87;;
50012;SDS011;35901;48.694;9.476;2022-09-09T04:08:31;7.47;;;4.90;;
50012;SDS011;35901;48.694;9.476;2022-09-09T04:10:58;5.63;;;5.00;;
50012;SDS011;35901;48.694;9.476;2022-09-09T04:13:26;8.73;;;5.53;;
50012;SDS011;35901;48.694;9.476;2022-09-09T04:15:52;5.10;;;4.60;;
50012;SDS011;35901;48.694;9.476;2022-09-09T04:18:20;7.70;;;5.63;;
50012;SDS011;35901;48.694;9.476;2022-09-09T04:20:50;6.93;;;5.57;;
50012;SDS011;35901;48.694;9.476;2022-09-09T04:23:20;8.83;;;5.27;;
50012;SDS011;35901;48.694;9.476;2022-09-09T04:25:46;6.43;;;5.30;;
50012;SDS011;35901;48.694;9.476;2022-09-09T04:28:14;5.63;;;5.07;;
50012;SDS011;35901;48.694;9.476;2022-09-09T04:30:41;8.60;;;5.43;;
50012;SDS011;35901;48.694;9.476;2022-09-09T04:33:08;7.47;;;4.80;;
50012;SDS011;35901;48.694;9.476;2022-09-09T04:35:35;6.37;;;5.43;;
50012;SDS011;35901;48.694;9.476;2022-09-09T04:38:03;6.50;;;5.07;;
50012;SDS011;35901;48.694;9.476;2022-09-09T04:40:30;8.00;;;6.03;;
50012;SDS011;35901;48.694;9.476;2022-09-09T04:42:57;4.83;;;4.37;;
50012;SDS011;35901;48.694;9.476;2022-09-09T04:45:24;5.47;;;4.67;;
50012;SDS011;35901;48.694;9.476;2022-09-09T04:47:52;9.50;;;5.13;;
50012;SDS011;35901;48.694;9.476;2022-09-09T04:50:18;5.73;;;5.13;;
50012;SDS011;35901;48.694;9.476;2022-09-09T04:52:45;5.93;;;5.00;;
50012;SDS011;35901;48.694;9.476;2022-09-09T04:55:12;7.63;;;5.20;;
50012;SDS011;35901;48.694;9.476;2022-09-09T04:57:40;7.97;;;5.30;;
50012;SDS011;35901;48.694;9.476;2022-09-09T05:00:05;8.77;;;5.00;;
50012;SDS011;35901;48.694;9.476;2022-09-09T05:02:37;7.67;;;5.00;;
50012;SDS011;35901;48.694;9.476;2022-09-09T05:05:04;7.70;;;4.53;;
50012;SDS011;35901;48.694;9.476;2022-09-09T05:07:30;4.70;;;4.10;;
50012;SDS011;35901;48.694;9.476;2022-09-09T05:09:57;7.70;;;4.67;;
50012;SDS011;35901;48.694;9.476;2022-09-09T05:12:23;8.77;;;5.53;;
50012;SDS011;35901;48.694;9.476;2022-09-09T05:14:53;7.30;;;4.90;;
50012;SDS011;35901;48.694;9.476;2022-09-09T05:17:19;8.30;;;5.00;;
50012;SDS011;35901;48.694;9.476;2022-09-09T05:19:46;4.53;;;4.10;;
50012;SDS011;35901;48.694;9.476;2022-09-09T05:22:13;6.47;;;4.43;;
50012;SDS011;35901;48.694;9.476;2022-09-09T05:24:44;7.93;;;4.50;;
50012;SDS011;35901;48.694;9.476;2022-09-09T05:27:09;4.10;;;3.70;;
50012;SDS011;35901;48.694;9.476;2022-09-09T05:29:39;6.13;;;4.53;;
50012;SDS011;35901;48.694;9.476;2022-09-09T05:32:08;4.77;;;4.27;;
50012;SDS011;35901;48.694;9.476;2022-09-09T05:34:35;5.20;;;4.70;;
50012;SDS011;35901;48.694;9.476;2022-09-09T05:37:03;6.80;;;4.90;;
50012;SDS011;35901;48.694;9.476;2022-09-09T05:39:30;10.50;;;5.17;;
50012;SDS011;35901;48.694;9.476;2022-09-09T05:41:58;6.93;;;5.17;;
50012;SDS011;35901;48.694;9.476;2022-09-09T05:44:23;8.27;;;4.70;;
50012;SDS011;35901;48.694;9.476;2022-09-09T05:46:52;7.13;;;5.07;;
50012;SDS011;35901;48.694;9.476;2022-09-09T05:49:20;7.37;;;4.30;;
50012;SDS011;35901;48.694;9.476;2022-09-09T05:51:47;4.60;;;4.20;;
50012;SDS011;35901;48.694;9.476;2022-09-09T05:54:15;4.20;;;3.80;;
50012;SDS011;35901;48.694;9.476;2022-09-09T05:56:45;5.07;;;3.70;;
50012;SDS011;35901;48.694;9.476;2022-09-09T05:59:15;6.73;;;3.70;;
50012;SDS011;35901;48.694;9.476;2022-09-09T06:01:41;4.87;;;3.73;;
50012;SDS011;35901;48.694;9.476;2022-09-09T06:04:13;4.07;;;3.30;;
50012;SDS011;35901;48.694;9.476;2022-09-09T06:06:40;6.57;;;3.47;;
50012;SDS011;35901;48.694;9.476;2022-09-09T06:09:12;4.43;;;3.60;;
50012;SDS011;35901;48.694;9.476;2022-09-09T06:11:41;4.40;;;3.60;;
50012;SDS011;35901;48.694;9.476;2022-09-09T06:14:07;6.33;;;3.40;;
50012;SDS011;35901;48.694;9.476;2022-09-09T06:16:35;6.07;;;3.80;;
50012;SDS011;35901;48.694;9.476;2022-09-09T06:19:04;3.60;;;3.07;;
50012;SDS011;35901;48.694;9.476;2022-09-09T06:21:34;6.93;;;3.50;;
50012;SDS011;35901;48.694;9.476;2022-09-09T06:24:06;4.70;;;3.30;;
50012;SDS011;35901;48.694;9.476;2022-09-09T06:26:33;3.83;;;3.37;;
50012;SDS011;35901;48.694;9.476;2022-09-09T06:29:02;5.30;;;3.57;;
50012;SDS011;35901;48.694;9.476;2022-09-09T06:31:29;4.43;;;3.43;;
50012;SDS011;35901;48.694;9.476;2022-09-09T06:34:06;4.73;;;3.50;;
50012;SDS011;35901;48.694;9.476;2022-09-09T06:36:35;4.67;;;3.50;;
50012;SDS011;35901;48.694;9.476;2022-09-09T06:39:02;6.10;;;3.80;;
50012;SDS011;35901;48.694;9.476;2022-09-09T06:41:30;6.60;;;3.13;;
50012;SDS011;35901;48.694;9.476;2022-09-09T06:43:57;5.10;;;3.27;;
50012;SDS011;35901;48.694;9.476;2022-09-09T06:46:31;3.50;;;3.20;;
50012;SDS011;35901;48.694;9.476;2022-09-09T06:48:59;3.73;;;2.63;;
50012;SDS011;35901;48.694;9.476;2022-09-09T06:51:29;2.60;;;2.40;;
50012;SDS011;35901;48.694;9.476;2022-09-09T06:53:58;2.83;;;2.40;;
50012;SDS011;35901;48.694;9.476;2022-09-09T06:56:29;3.70;;;2.40;;
50012;SDS011;35901;48.694;9.476;2022-09-09T06:59:03;3.73;;;2.30;;
50012;SDS011;35901;48.694;9.476;2022-09-09T07:01:32;2.83;;;2.20;;
50012;SDS011;35901;48.694;9.476;2022-09-09T07:04:04;3.20;;;1.97;;
50012;SDS011;35901;48.694;9.476;2022-09-09T07:06:38;2.90;;;2.10;;
50012;SDS011;35901;48.694;9.476;2022-09-09T07:09:11;2.23;;;2.03;;
50012;SDS011;35901;48.694;9.476;2022-09-09T07:11:44;3.90;;;1.90;;
50012;SDS011;35901;48.694;9.476;2022-09-09T07:14:12;4.47;;;2.27;;
50012;SDS011;35901;48.694;9.476;2022-09-09T07:16:40;2.00;;;1.80;;
50012;SDS011;35901;48.694;9.476;2022-09-09T07:19:12;3.50;;;2.10;;
50012;SDS011;35901;48.694;9.476;2022-09-09T07:21:39;3.57;;;2.13;;
50012;SDS011;35901;48.694;9.476;2022-09-09T07:24:06;4.67;;;1.90;;
50012;SDS011;35901;48.694;9.476;2022-09-09T07:26:37;3.23;;;1.70;;
50012;SDS011;35901;48.694;9.476;2022-09-09T07:29:03;3.57;;;1.77;;
50012;SDS011;35901;48.694;9.476;2022-09-09T07:31:32;2.60;;;1.90;;
50012;SDS011;35901;48.694;9.476;2022-09-09T07:34:00;3.00;;;1.80;;
50012;SDS011;35901;48.694;9.476;2022-09-09T07:36:30;3.07;;;1.70;;
50012;SDS011;35901;48.694;9.476;2022-09-09T07:39:03;1.63;;;1.43;;
50012;SDS011;35901;48.694;9.476;2022-09-09T07:41:33;2.90;;;1.60;;
50012;SDS011;35901;48.694;9.476;2022-09-09T07:44:08;2.33;;;1.50;;
50012;SDS011;35901;48.694;9.476;2022-09-09T07:46:36;2.80;;;1.57;;
50012;SDS011;35901;48.694;9.476;2022-09-09T07:49:07;3.07;;;1.70;;
50012;SDS011;35901;48.694;9.476;2022-09-09T07:51:37;2.33;;;1.60;;
50012;SDS011;35901;48.694;9.476;2022-09-09T07:54:08;3.63;;;1.90;;
50012;SDS011;35901;48.694;9.476;2022-09-09T07:56:38;3.23;;;1.50;;
50012;SDS011;35901;48.694;9.476;2022-09-09T07:59:05;3.13;;;1.50;;
50012;SDS011;35901;48.694;9.476;2022-09-09T08:01:34;2.10;;;1.70;;
50012;SDS011;35901;48.694;9.476;2022-09-09T08:04:09;2.70;;;1.50;;
50012;SDS011;35901;48.694;9.476;2022-09-09T08:06:41;3.47;;;1.80;;
50012;SDS011;35901;48.694;9.476;2022-09-09T08:09:10;2.67;;;1.50;;
50012;SDS011;35901;48.694;9.476;2022-09-09T08:11:37;2.90;;;1.40;;
50012;SDS011;35901;48.694;9.476;2022-09-09T08:14:06;1.83;;;1.50;;
50012;SDS011;35901;48.694;9.476;2022-09-09T08:16:35;1.70;;;1.30;;
50012;SDS011;35901;48.694;9.476;2022-09-09T08:19:04;3.37;;;1.60;;
50012;SDS011;35901;48.694;9.476;2022-09-09T08:21:32;4.00;;;1.60;;
50012;SDS011;35901;48.694;9.476;2022-09-09T08:24:00;2.83;;;1.40;;
50012;SDS011;35901;48.694;9.476;2022-09-09T08:26:30;1.57;;;1.40;;
50012;SDS011;35901;48.694;9.476;2022-09-09T08:29:01;2.37;;;1.30;;
50012;SDS011;35901;48.694;9.476;2022-09-09T08:31:32;1.67;;;1.30;;
50012;SDS011;35901;48.694;9.476;2022-09-09T08:34:00;2.70;;;1.40;;
50012;SDS011;35901;48.694;9.476;2022-09-09T08:36:29;3.20;;;1.47;;
50012;SDS011;35901;48.694;9.476;2022-09-09T08:38:58;3.43;;;1.30;;
50012;SDS011;35901;48.694;9.476;2022-09-09T08:46:55;3.53;;;1.50;;
50012;SDS011;35901;48.694;9.476;2022-09-09T08:52:19;4.47;;;1.50;;
50012;SDS011;35901;48.694;9.476;2022-09-09T08:54:50;2.43;;;1.20;;
50012;SDS011;35901;48.694;9.476;2022-09-09T08:57:20;2.63;;;1.40;;
50012;SDS011;35901;48.694;9.476;2022-09-09T08:59:54;2.37;;;1.10;;
50012;SDS011;35901;48.694;9.476;2022-09-09T09:05:42;4.13;;;1.47;;
50012;SDS011;35901;48.694;9.476;2022-09-09T09:10:53;3.70;;;1.50;;
50012;SDS011;35901;48.694;9.476;2022-09-09T09:13:30;2.30;;;1.40;;
50012;SDS011;35901;48.694;9.476;2022-09-09T09:16:10;4.43;;;1.40;;
50012;SDS011;35901;48.694;9.476;2022-09-09T09:18:54;4.73;;;1.70;;
50012;SDS011;35901;48.694;9.476;2022-09-09T09:21:41;2.70;;;1.30;;
50012;SDS011;35901;48.694;9.476;2022-09-09T09:24:16;1.97;;;1.10;;
50012;SDS011;35901;48.694;9.476;2022-09-09T09:27:15;4.33;;;1.40;;
50012;SDS011;35901;48.694;9.476;2022-09-09T09:29:49;2.93;;;1.30;;
50012;SDS011;35901;48.694;9.476;2022-09-09T09:32:18;3.23;;;1.53;;
50012;SDS011;35901;48.694;9.476;2022-09-09T09:34:57;3.07;;;1.40;;
50012;SDS011;35901;48.694;9.476;2022-09-09T09:37:28;3.83;;;1.60;;
50012;SDS011;35901;48.694;9.476;2022-09-09T09:40:08;6.20;;;1.73;;
50012;SDS011;35901;48.694;9.476;2022-09-09T09:42:58;2.87;;;1.20;;
50012;SDS011;35901;48.694;9.476;2022-09-09T09:45:35;2.93;;;1.47;;
50012;SDS011;35901;48.694;9.476;2022-09-09T09:48:09;2.90;;;1.30;;
50012;SDS011;35901;48.694;9.476;2022-09-09T09:53:34;2.30;;;1.60;;
50012;SDS011;35901;48.694;9.476;2022-09-09T09:56:03;3.33;;;1.47;;
50012;SDS011;35901;48.694;9.476;2022-09-09T09:58:49;3.40;;;1.40;;
50012;SDS011;35901;48.694;9.476;2022-09-09T10:01:32;2.87;;;1.50;;
50012;SDS011;35901;48.694;9.476;2022-09-09T10:04:18;2.93;;;1.43;;
50012;SDS011;35901;48.694;9.476;2022-09-09T10:06:54;3.37;;;1.30;;
50012;SDS011;35901;48.694;9.476;2022-09-09T10:09:30;3.93;;;1.47;;
50012;SDS011;35901;48.694;9.476;2022-09-09T10:28:54;3.87;;;1.40;;
50012;SDS011;35901;48.694;9.476;2022-09-09T10:31:32;3.70;;;1.30;;
50012;SDS011;35901;48.694;9.476;2022-09-09T10:34:35;1.63;;;1.00;;
50012;SDS011;35901;48.694;9.476;2022-09-09T10:37:25;2.00;;;1.20;;
50012;SDS011;35901;48.694;9.476;2022-09-09T10:40:05;2.00;;;1.10;;
50012;SDS011;35901;48.694;9.476;2022-09-09T10:42:40;3.33;;;1.20;;
50012;SDS011;35901;48.694;9.476;2022-09-09T10:45:16;2.07;;;1.00;;
50012;SDS011;35901;48.694;9.476;2022-09-09T10:53:12;3.00;;;1.20;;
50012;SDS011;35901;48.694;9.476;2022-09-09T10:55:51;2.17;;;1.30;;
50012;SDS011;35901;48.694;9.476;2022-09-09T10:58:23;1.30;;;0.90;;
50012;SDS011;35901;48.694;9.476;2022-09-09T11:00:59;3.67;;;1.20;;
50012;SDS011;35901;48.694;9.476;2022-09-09T11:03:32;2.43;;;1.10;;
50012;SDS011;35901;48.694;9.476;2022-09-09T11:06:04;1.60;;;1.10;;
50012;SDS011;35901;48.694;9.476;2022-09-09T11:08:32;1.83;;;1.10;;
50012;SDS011;35901;48.694;9.476;2022-09-09T11:11:10;1.23;;;1.00;;
50012;SDS011;35901;48.694;9.476;2022-09-09T11:16:47;2.07;;;1.10;;
50012;SDS011;35901;48.694;9.476;2022-09-09T11:21:52;1.37;;;0.90;;
50012;SDS011;35901;48.694;9.476;2022-09-09T11:24:37;3.10;;;1.30;;
50012;SDS011;35901;48.694;9.476;2022-09-09T11:27:11;1.73;;;1.10;;
50012;SDS011;35901;48.694;9.476;2022-09-09T11:40:43;2.83;;;1.30;;
50012;SDS011;35901;48.694;9.476;2022-09-09T11:43:10;2.37;;;0.83;;
50012;SDS011;35901;48.694;9.476;2022-09-09T11:45:39;4.07;;;1.30;;
50012;SDS011;35901;48.694;9.476;2022-09-09T11:48:21;6.93;;;1.37;;
50012;SDS011;35901;48.694;9.476;2022-09-09T11:50:57;2.57;;;1.10;;
50012;SDS011;35901;48.694;9.476;2022-09-09T11:53:35;4.00;;;1.50;;
50012;SDS011;35901;48.694;9.476;2022-09-09T11:56:13;3.50;;;1.40;;
50012;SDS011;35901;48.694;9.476;2022-09-09T11:59:04;3.13;;;1.00;;
50012;SDS011;35901;48.694;9.476;2022-09-09T12:01:43;2.03;;;1.30;;
50012;SDS011;35901;48.694;9.476;2022-09-09T12:04:12;2.93;;;1.43;;
50012;SDS011;35901;48.694;9.476;2022-09-09T12:07:03;4.93;;;1.43;;
50012;SDS011;35901;48.694;9.476;2022-09-09T12:10:00;5.47;;;1.50;;
50012;SDS011;35901;48.694;9.476;2022-09-09T12:12:33;4.13;;;1.37;;
50012;SDS011;35901;48.694;9.476;2022-09-09T12:17:37;3.20;;;1.30;;
50012;SDS011;35901;48.694;9.476;2022-09-09T12:28:44;2.63;;;1.03;;
50012;SDS011;35901;48.694;9.476;2022-09-09T12:34:02;2.40;;;1.30;;
50012;SDS011;35901;48.694;9.476;2022-09-09T12:36:41;2.40;;;1.10;;
50012;SDS011;35901;48.694;9.476;2022-09-09T12:39:43;1.03;;;0.90;;
50012;SDS011;35901;48.694;9.476;2022-09-09T12:42:15;1.47;;;0.83;;
50012;SDS011;35901;48.694;9.476;2022-09-09T12:44:52;0.97;;;0.70;;
50012;SDS011;35901;48.694;9.476;2022-09-09T12:47:20;0.70;;;0.50;;
50012;SDS011;35901;48.694;9.476;2022-09-09T12:49:49;0.70;;;0.70;;
50012;SDS011;35901;48.694;9.476;2022-09-09T12:52:27;0.60;;;0.60;;
50012;SDS011;35901;48.694;9.476;2022-09-09T12:54:56;0.70;;;0.63;;
50012;SDS011;35901;48.694;9.476;2022-09-09T12:57:23;0.67;;;0.53;;
50012;SDS011;35901;48.694;9.476;2022-09-09T12:59:51;0.63;;;0.63;;
50012;SDS011;35901;48.694;9.476;2022-09-09T13:04:48;1.00;;;0.70;;
50012;SDS011;35901;48.694;9.476;2022-09-09T13:07:16;0.80;;;0.70;;
50012;SDS011;35901;48.694;9.476;2022-09-09T13:09:44;0.83;;;0.50;;
50012;SDS011;35901;48.694;9.476;2022-09-09T13:12:15;3.20;;;1.00;;
50012;SDS011;35901;48.694;9.476;2022-09-09T13:14:48;1.23;;;0.70;;
50012;SDS011;35901;48.694;9.476;2022-09-09T13:17:19;0.87;;;0.83;;
50012;SDS011;35901;48.694;9.476;2022-09-09T13:19:49;2.27;;;1.00;;
50012;SDS011;35901;48.694;9.476;2022-09-09T13:22:37;1.37;;;1.00;;
50012;SDS011;35901;48.694;9.476;2022-09-09T13:25:16;1.77;;;0.90;;
50012;SDS011;35901;48.694;9.476;2022-09-09T13:30:31;1.47;;;0.80;;
50012;SDS011;35901;48.694;9.476;2022-09-09T13:35:47;2.17;;;1.00;;
50012;SDS011;35901;48.694;9.476;2022-09-09T13:38:15;2.20;;;1.10;;
50012;SDS011;35901;48.694;9.476;2022-09-09T13:43:28;1.77;;;1.00;;
50012;SDS011;35901;48.694;9.476;2022-09-09T13:45:56;2.03;;;1.00;;
50012;SDS011;35901;48.694;9.476;2022-09-09T14:08:20;1.60;;;0.90;;
50012;SDS011;35901;48.694;9.476;2022-09-09T14:10:49;2.10;;;1.07;;
50012;SDS011;35901;48.694;9.476;2022-09-09T14:13:15;1.10;;;1.00;;
50012;SDS011;35901;48.694;9.476;2022-09-09T14:15:41;1.80;;;1.00;;
50012;SDS011;35901;48.694;9.476;2022-09-09T14:25:41;1.93;;;1.00;;
50012;SDS011;35901;48.694;9.476;2022-09-09T14:28:09;2.53;;;0.90;;
50012;SDS011;35901;48.694;9.476;2022-09-09T14:30:37;2.27;;;0.90;;
50012;SDS011;35901;48.694;9.476;2022-09-09T14:36:54;1.53;;;1.20;;
50012;SDS011;35901;48.694;9.476;2022-09-09T14:39:19;1.40;;;1.30;;
50012;SDS011;35901;48.694;9.476;2022-09-09T14:41:45;2.33;;;1.03;;
50012;SDS011;35901;48.694;9.476;2022-09-09T14:48:02;3.73;;;1.00;;
50012;SDS011;35901;48.694;9.476;2022-09-09T14:54:15;1.83;;;0.80;;
50012;SDS011;35901;48.694;9.476;2022-09-09T14:56:41;2.00;;;0.93;;
50012;SDS011;35901;48.694;9.476;2022-09-09T14:59:07;1.53;;;0.90;;
50012;SDS011;35901;48.694;9.476;2022-09-09T15:05:39;1.10;;;1.00;;
50012;SDS011;35901;48.694;9.476;2022-09-09T15:08:05;1.63;;;0.90;;
50012;SDS011;35901;48.694;9.476;2022-09-09T15:10:30;1.00;;;0.70;;
50012;SDS011;35901;48.694;9.476;2022-09-09T15:16:47;2.27;;;1.00;;
50012;SDS011;35901;48.694;9.476;2022-09-09T15:26:09;1.37;;;0.70;;
50012;SDS011;35901;48.694;9.476;2022-09-09T15:28:36;1.50;;;0.73;;
50012;SDS011;35901;48.694;9.476;2022-09-09T15:31:20;2.40;;;0.93;;
50012;SDS011;35901;48.694;9.476;2022-09-09T15:39:13;0.87;;;0.73;;
50012;SDS011;35901;48.694;9.476;2022-09-09T15:41:41;1.17;;;0.80;;
50012;SDS011;35901;48.694;9.476;2022-09-09T15:44:08;2.23;;;0.80;;
50012;SDS011;35901;48.694;9.476;2022-09-09T15:50:23;0.90;;;0.80;;
50012;SDS011;35901;48.694;9.476;2022-09-09T15:52:49;1.33;;;0.90;;
50012;SDS011;35901;48.694;9.476;2022-09-09T15:55:14;1.47;;;1.00;;
50012;SDS011;35901;48.694;9.476;2022-09-09T16:01:27;1.73;;;1.07;;
50012;SDS011;35901;48.694;9.476;2022-09-09T16:08:16;2.30;;;1.00;;
50012;SDS011;35901;48.694;9.476;2022-09-09T16:10:43;3.00;;;1.20;;
50012;SDS011;35901;48.694;9.476;2022-09-09T16:13:09;2.30;;;1.37;;
50012;SDS011;35901;48.694;9.476;2022-09-09T16:20:02;1.47;;;0.93;;
50012;SDS011;35901;48.694;9.476;2022-09-09T16:22:27;2.47;;;1.10;;
50012;SDS011;35901;48.694;9.476;2022-09-09T16:24:53;2.17;;;1.50;;
50012;SDS011;35901;48.694;9.476;2022-09-09T16:30:26;1.43;;;0.80;;
50012;SDS011;35901;48.694;9.476;2022-09-09T16:32:56;1.47;;;0.80;;
50012;SDS011;35901;48.694;9.476;2022-09-09T16:35:27;2.53;;;0.90;;
50012;SDS011;35901;48.694;9.476;2022-09-09T16:37:59;1.03;;;0.70;;
50012;SDS011;35901;48.694;9.476;2022-09-09T16:40:30;2.50;;;0.87;;
50012;SDS011;35901;48.694;9.476;2022-09-09T16:47:02;0.83;;;0.70;;
50012;SDS011;35901;48.694;9.476;2022-09-09T16:49:28;1.57;;;1.03;;
50012;SDS011;35901;48.694;9.476;2022-09-09T17:17:50;0.73;;;0.73;;
50012;SDS011;35901;48.694;9.476;2022-09-09T17:20:18;1.33;;;0.70;;
50012;SDS011;35901;48.694;9.476;2022-09-09T17:22:44;1.43;;;0.70;;
50012;SDS011;35901;48.694;9.476;2022-09-09T17:25:10;1.40;;;0.77;;
50012;SDS011;35901;48.694;9.476;2022-09-09T17:27:42;1.37;;;0.80;;
50012;SDS011;35901;48.694;9.476;2022-09-09T17:30:22;1.50;;;0.97;;
50012;SDS011;35901;48.694;9.476;2022-09-09T17:36:55;1.17;;;0.90;;
50012;SDS011;35901;48.694;9.476;2022-09-09T17:39:21;1.67;;;0.90;;
50012;SDS011;35901;48.694;9.476;2022-09-09T17:41:47;1.30;;;0.90;;
50012;SDS011;35901;48.694;9.476;2022-09-09T17:44:13;2.60;;;1.07;;
50012;SDS011;35901;48.694;9.476;2022-09-09T17:46:46;1.50;;;0.80;;
50012;SDS011;35901;48.694;9.476;2022-09-09T17:49:26;0.80;;;0.70;;
50012;SDS011;35901;48.694;9.476;2022-09-09T17:51:57;1.10;;;0.73;;
50012;SDS011;35901;48.694;9.476;2022-09-09T17:57:17;0.83;;;0.70;;
50012;SDS011;35901;48.694;9.476;2022-09-09T17:59:49;1.47;;;0.73;;
50012;SDS011;35901;48.694;9.476;2022-09-09T18:05:10;1.43;;;0.90;;
50012;SDS011;35901;48.694;9.476;2022-09-09T18:07:51;0.83;;;0.70;;
50012;SDS011;35901;48.694;9.476;2022-09-09T18:10:50;1.10;;;0.90;;
50012;SDS011;35901;48.694;9.476;2022-09-09T18:13:34;2.20;;;0.90;;
50012;SDS011;35901;48.694;9.476;2022-09-09T18:23:38;1.03;;;0.80;;
50012;SDS011;35901;48.694;9.476;2022-09-09T18:26:37;1.40;;;0.90;;
50012;SDS011;35901;48.694;9.476;2022-09-09T18:29:29;2.17;;;0.83;;
50012;SDS011;35901;48.694;9.476;2022-09-09T18:35:50;0.73;;;0.70;;
50012;SDS011;35901;48.694;9.476;2022-09-09T18:38:50;0.70;;;0.70;;
50012;SDS011;35901;48.694;9.476;2022-09-09T18:44:23;1.23;;;0.93;;
50012;SDS011;35901;48.694;9.476;2022-09-09T18:47:03;1.30;;;0.93;;
50012;SDS011;35901;48.694;9.476;2022-09-09T18:49:54;3.03;;;1.00;;
50012;SDS011;35901;48.694;9.476;2022-09-09T19:00:18;0.70;;;0.70;;
50012;SDS011;35901;48.694;9.476;2022-09-09T19:02:44;0.97;;;0.87;;
50012;SDS011;35901;48.694;9.476;2022-09-09T19:05:15;1.90;;;0.80;;
50012;SDS011;35901;48.694;9.476;2022-09-09T19:07:46;2.00;;;0.90;;
50012;SDS011;35901;48.694;9.476;2022-09-09T19:10:26;1.40;;;0.90;;
50012;SDS011;35901;48.694;9.476;2022-09-09T19:12:57;1.70;;;0.77;;
50012;SDS011;35901;48.694;9.476;2022-09-09T19:15:28;1.40;;;0.80;;
50012;SDS011;35901;48.694;9.476;2022-09-09T19:18:39;0.70;;;0.70;;
50012;SDS011;35901;48.694;9.476;2022-09-09T19:28:43;0.83;;;0.83;;
50012;SDS011;35901;48.694;9.476;2022-09-09T19:31:14;1.67;;;0.80;;
50012;SDS011;35901;48.694;9.476;2022-09-09T19:33:43;3.20;;;0.90;;
50012;SDS011;35901;48.694;9.476;2022-09-09T19:36:13;1.77;;;1.00;;
50012;SDS011;35901;48.694;9.476;2022-09-09T19:39:04;1.60;;;0.83;;
50012;SDS011;35901;48.694;9.476;2022-09-09T19:46:05;1.80;;;1.17;;
50012;SDS011;35901;48.694;9.476;2022-09-09T19:56:07;1.50;;;1.23;;